sensor_id;sensor_type;location;lat;lon;timestamp;temperature;humidity
3069;DHT22;1545;51.728;8.796;2022-07-29T00:00:10;19.30;61.30
3069;DHT22;1545;51.728;8.796;2022-07-29T00:02:36;19.40;61.30
3069;DHT22;1545;51.728;8.796;2022-07-29T00:05:03;19.40;61.00
3069;DHT22;1545;51.728;8.796;2022-07-29T00:07:29;19.50;60.90
3069;DHT22;1545;51.728;8.796;2022-07-29T00:09:54;19.50;60.80
3069;DHT22;1545;51.728;8.796;2022-07-29T00:12:21;19.40;61.00
3069;DHT22;1545;51.728;8.796;2022-07-29T00:14:47;19.40;60.90
3069;DHT22;1545;51.728;8.796;2022-07-29T00:17:12;19.40;60.90
3069;DHT22;1545;51.728;8.796;2022-07-29T00:19:38;19.50;60.70
3069;DHT22;1545;51.728;8.796;2022-07-29T00:22:03;19.40;60.90
3069;DHT22;1545;51.728;8.796;2022-07-29T00:24:29;19.40;61.20
3069;DHT22;1545;51.728;8.796;2022-07-29T00:26:54;19.40;61.50
3069;DHT22;1545;51.728;8.796;2022-07-29T00:29:20;19.30;61.40
3069;DHT22;1545;51.728;8.796;2022-07-29T00:31:45;19.30;61.10
3069;DHT22;1545;51.728;8.796;2022-07-29T00:34:11;19.30;61.20
3069;DHT22;1545;51.728;8.796;2022-07-29T00:36:57;19.30;61.50
3069;DHT22;1545;51.728;8.796;2022-07-29T00:39:22;19.30;61.40
3069;DHT22;1545;51.728;8.796;2022-07-29T00:41:49;19.30;61.50
3069;DHT22;1545;51.728;8.796;2022-07-29T00:44:15;19.20;61.60
3069;DHT22;1545;51.728;8.796;2022-07-29T00:46:40;19.30;61.50
3069;DHT22;1545;51.728;8.796;2022-07-29T00:49:06;19.20;61.50
3069;DHT22;1545;51.728;8.796;2022-07-29T00:51:34;19.20;61.50
3069;DHT22;1545;51.728;8.796;2022-07-29T00:54:00;19.20;61.70
3069;DHT22;1545;51.728;8.796;2022-07-29T00:56:26;19.20;61.60
3069;DHT22;1545;51.728;8.796;2022-07-29T00:58:52;19.20;61.60
3069;DHT22;1545;51.728;8.796;2022-07-29T01:01:19;19.20;61.50
3069;DHT22;1545;51.728;8.796;2022-07-29T01:03:44;19.20;61.50
3069;DHT22;1545;51.728;8.796;2022-07-29T01:06:10;19.20;61.90
3069;DHT22;1545;51.728;8.796;2022-07-29T01:08:35;19.10;62.00
3069;DHT22;1545;51.728;8.796;2022-07-29T01:11:02;19.10;61.90
3069;DHT22;1545;51.728;8.796;2022-07-29T01:13:29;19.10;62.10
3069;DHT22;1545;51.728;8.796;2022-07-29T01:16:25;19.00;62.30
3069;DHT22;1545;51.728;8.796;2022-07-29T01:18:54;19.00;62.20
3069;DHT22;1545;51.728;8.796;2022-07-29T01:21:45;19.10;62.20
3069;DHT22;1545;51.728;8.796;2022-07-29T01:24:34;19.00;62.30
3069;DHT22;1545;51.728;8.796;2022-07-29T01:30:02;19.00;62.40
3069;DHT22;1545;51.728;8.796;2022-07-29T01:32:33;19.00;62.40
3069;DHT22;1545;51.728;8.796;2022-07-29T01:38:20;19.00;62.60
3069;DHT22;1545;51.728;8.796;2022-07-29T01:40:53;19.00;62.70
3069;DHT22;1545;51.728;8.796;2022-07-29T01:43:27;19.00;62.80
3069;DHT22;1545;51.728;8.796;2022-07-29T01:46:01;19.00;62.80
3069;DHT22;1545;51.728;8.796;2022-07-29T01:48:34;18.90;63.00
3069;DHT22;1545;51.728;8.796;2022-07-29T01:51:05;18.90;63.00
3069;DHT22;1545;51.728;8.796;2022-07-29T01:53:43;18.90;63.10
3069;DHT22;1545;51.728;8.796;2022-07-29T01:56:12;18.90;63.30
3069;DHT22;1545;51.728;8.796;2022-07-29T01:58:40;18.80;63.60
3069;DHT22;1545;51.728;8.796;2022-07-29T02:01:09;18.80;63.60
3069;DHT22;1545;51.728;8.796;2022-07-29T02:03:36;18.80;63.60
3069;DHT22;1545;51.728;8.796;2022-07-29T02:06:04;18.80;63.80
3069;DHT22;1545;51.728;8.796;2022-07-29T02:08:32;18.70;63.80
3069;DHT22;1545;51.728;8.796;2022-07-29T02:11:00;18.70;63.90
3069;DHT22;1545;51.728;8.796;2022-07-29T02:13:28;18.60;64.10
3069;DHT22;1545;51.728;8.796;2022-07-29T02:15:56;18.60;64.20
3069;DHT22;1545;51.728;8.796;2022-07-29T02:18:23;18.60;64.30
3069;DHT22;1545;51.728;8.796;2022-07-29T02:20:53;18.50;64.40
3069;DHT22;1545;51.728;8.796;2022-07-29T02:23:24;18.50;64.80
3069;DHT22;1545;51.728;8.796;2022-07-29T02:25:53;18.50;64.90
3069;DHT22;1545;51.728;8.796;2022-07-29T02:28:25;18.40;65.00
3069;DHT22;1545;51.728;8.796;2022-07-29T02:30:53;18.40;65.20
3069;DHT22;1545;51.728;8.796;2022-07-29T02:33:21;18.40;65.20
3069;DHT22;1545;51.728;8.796;2022-07-29T02:35:48;18.30;65.30
3069;DHT22;1545;51.728;8.796;2022-07-29T02:38:16;18.30;65.30
3069;DHT22;1545;51.728;8.796;2022-07-29T02:41:08;18.30;65.60
3069;DHT22;1545;51.728;8.796;2022-07-29T02:43:35;18.30;65.50
3069;DHT22;1545;51.728;8.796;2022-07-29T02:46:03;18.30;65.60
3069;DHT22;1545;51.728;8.796;2022-07-29T02:48:38;18.30;65.80
3069;DHT22;1545;51.728;8.796;2022-07-29T02:51:12;18.20;66.00
3069;DHT22;1545;51.728;8.796;2022-07-29T02:53:39;18.20;66.20
3069;DHT22;1545;51.728;8.796;2022-07-29T02:56:13;18.20;66.40
3069;DHT22;1545;51.728;8.796;2022-07-29T02:58:42;18.20;66.20
3069;DHT22;1545;51.728;8.796;2022-07-29T03:01:30;18.20;66.50
3069;DHT22;1545;51.728;8.796;2022-07-29T03:03:56;18.10;66.40
3069;DHT22;1545;51.728;8.796;2022-07-29T03:06:26;18.10;66.50
3069;DHT22;1545;51.728;8.796;2022-07-29T03:08:52;18.10;66.70
3069;DHT22;1545;51.728;8.796;2022-07-29T03:11:19;18.10;66.70
3069;DHT22;1545;51.728;8.796;2022-07-29T03:13:45;18.10;66.50
3069;DHT22;1545;51.728;8.796;2022-07-29T03:16:11;18.10;66.60
3069;DHT22;1545;51.728;8.796;2022-07-29T03:18:38;18.10;66.60
3069;DHT22;1545;51.728;8.796;2022-07-29T03:21:04;18.10;66.50
3069;DHT22;1545;51.728;8.796;2022-07-29T03:23:29;18.10;66.60
3069;DHT22;1545;51.728;8.796;2022-07-29T03:25:55;18.10;66.70
3069;DHT22;1545;51.728;8.796;2022-07-29T03:28:21;18.10;66.70
3069;DHT22;1545;51.728;8.796;2022-07-29T03:30:47;18.10;66.80
3069;DHT22;1545;51.728;8.796;2022-07-29T03:33:13;18.20;66.50
3069;DHT22;1545;51.728;8.796;2022-07-29T03:35:38;18.20;66.50
3069;DHT22;1545;51.728;8.796;2022-07-29T03:38:04;18.30;66.30
3069;DHT22;1545;51.728;8.796;2022-07-29T03:40:38;18.30;66.20
3069;DHT22;1545;51.728;8.796;2022-07-29T03:43:05;18.30;66.30
3069;DHT22;1545;51.728;8.796;2022-07-29T03:45:32;18.30;66.40
3069;DHT22;1545;51.728;8.796;2022-07-29T03:48:05;18.30;66.20
3069;DHT22;1545;51.728;8.796;2022-07-29T03:50:33;18.30;66.20
3069;DHT22;1545;51.728;8.796;2022-07-29T03:52:59;18.30;66.50
3069;DHT22;1545;51.728;8.796;2022-07-29T03:55:25;18.30;66.70
3069;DHT22;1545;51.728;8.796;2022-07-29T03:57:51;18.30;66.80
3069;DHT22;1545;51.728;8.796;2022-07-29T04:00:17;18.30;66.70
3069;DHT22;1545;51.728;8.796;2022-07-29T04:02:44;18.30;66.60
3069;DHT22;1545;51.728;8.796;2022-07-29T04:05:14;18.30;66.70
3069;DHT22;1545;51.728;8.796;2022-07-29T04:07:49;18.30;66.70
3069;DHT22;1545;51.728;8.796;2022-07-29T04:10:15;18.30;67.00
3069;DHT22;1545;51.728;8.796;2022-07-29T04:12:42;18.30;66.90
3069;DHT22;1545;51.728;8.796;2022-07-29T04:15:08;18.30;66.80
3069;DHT22;1545;51.728;8.796;2022-07-29T04:17:34;18.30;66.30
3069;DHT22;1545;51.728;8.796;2022-07-29T04:19:59;18.40;66.30
3069;DHT22;1545;51.728;8.796;2022-07-29T04:22:25;18.40;66.00
3069;DHT22;1545;51.728;8.796;2022-07-29T04:24:51;18.40;65.90
3069;DHT22;1545;51.728;8.796;2022-07-29T04:27:16;18.40;65.90
3069;DHT22;1545;51.728;8.796;2022-07-29T04:29:42;18.50;65.80
3069;DHT22;1545;51.728;8.796;2022-07-29T04:32:07;18.50;65.80
3069;DHT22;1545;51.728;8.796;2022-07-29T04:34:33;18.50;65.70
3069;DHT22;1545;51.728;8.796;2022-07-29T04:36:58;18.50;65.90
3069;DHT22;1545;51.728;8.796;2022-07-29T04:39:24;18.40;66.10
3069;DHT22;1545;51.728;8.796;2022-07-29T04:41:50;18.40;66.20
3069;DHT22;1545;51.728;8.796;2022-07-29T04:44:15;18.40;66.50
3069;DHT22;1545;51.728;8.796;2022-07-29T04:46:41;18.40;66.20
3069;DHT22;1545;51.728;8.796;2022-07-29T04:49:07;18.40;66.20
3069;DHT22;1545;51.728;8.796;2022-07-29T04:51:33;18.50;65.60
3069;DHT22;1545;51.728;8.796;2022-07-29T04:53:58;18.50;65.60
3069;DHT22;1545;51.728;8.796;2022-07-29T04:56:24;18.50;65.50
3069;DHT22;1545;51.728;8.796;2022-07-29T04:58:49;18.60;65.60
3069;DHT22;1545;51.728;8.796;2022-07-29T05:01:15;18.60;65.40
3069;DHT22;1545;51.728;8.796;2022-07-29T05:03:41;18.70;65.00
3069;DHT22;1545;51.728;8.796;2022-07-29T05:06:06;18.70;65.50
3069;DHT22;1545;51.728;8.796;2022-07-29T05:08:32;18.70;65.80
3069;DHT22;1545;51.728;8.796;2022-07-29T05:10:57;18.60;66.40
3069;DHT22;1545;51.728;8.796;2022-07-29T05:13:23;18.60;66.50
3069;DHT22;1545;51.728;8.796;2022-07-29T05:15:48;18.60;66.10
3069;DHT22;1545;51.728;8.796;2022-07-29T05:18:14;18.60;66.80
3069;DHT22;1545;51.728;8.796;2022-07-29T05:20:40;18.50;67.60
3069;DHT22;1545;51.728;8.796;2022-07-29T05:23:05;18.50;68.30
3069;DHT22;1545;51.728;8.796;2022-07-29T05:25:31;18.40;68.50
3069;DHT22;1545;51.728;8.796;2022-07-29T05:27:57;18.40;68.60
3069;DHT22;1545;51.728;8.796;2022-07-29T05:30:23;18.30;68.60
3069;DHT22;1545;51.728;8.796;2022-07-29T05:32:49;18.40;68.40
3069;DHT22;1545;51.728;8.796;2022-07-29T05:35:14;18.40;68.50
3069;DHT22;1545;51.728;8.796;2022-07-29T05:37:40;18.40;68.60
3069;DHT22;1545;51.728;8.796;2022-07-29T05:40:06;18.40;68.40
3069;DHT22;1545;51.728;8.796;2022-07-29T05:42:32;18.50;68.60
3069;DHT22;1545;51.728;8.796;2022-07-29T05:44:58;18.50;68.40
3069;DHT22;1545;51.728;8.796;2022-07-29T05:47:24;18.50;68.80
3069;DHT22;1545;51.728;8.796;2022-07-29T05:49:49;18.50;68.70
3069;DHT22;1545;51.728;8.796;2022-07-29T05:52:16;18.60;68.10
3069;DHT22;1545;51.728;8.796;2022-07-29T05:54:42;18.70;67.80
3069;DHT22;1545;51.728;8.796;2022-07-29T05:57:09;18.80;68.00
3069;DHT22;1545;51.728;8.796;2022-07-29T05:59:39;18.80;67.80
3069;DHT22;1545;51.728;8.796;2022-07-29T06:02:05;18.90;67.40
3069;DHT22;1545;51.728;8.796;2022-07-29T06:04:31;18.90;67.90
3069;DHT22;1545;51.728;8.796;2022-07-29T06:06:57;18.90;67.50
3069;DHT22;1545;51.728;8.796;2022-07-29T06:09:23;18.90;67.80
3069;DHT22;1545;51.728;8.796;2022-07-29T06:11:48;19.00;68.00
3069;DHT22;1545;51.728;8.796;2022-07-29T06:14:14;19.10;67.60
3069;DHT22;1545;51.728;8.796;2022-07-29T06:16:40;19.10;67.60
3069;DHT22;1545;51.728;8.796;2022-07-29T06:19:05;19.30;67.80
3069;DHT22;1545;51.728;8.796;2022-07-29T06:21:31;19.40;67.20
3069;DHT22;1545;51.728;8.796;2022-07-29T06:23:56;19.50;67.10
3069;DHT22;1545;51.728;8.796;2022-07-29T06:26:22;19.70;66.30
3069;DHT22;1545;51.728;8.796;2022-07-29T06:28:48;19.60;66.30
3069;DHT22;1545;51.728;8.796;2022-07-29T06:31:14;19.60;66.00
3069;DHT22;1545;51.728;8.796;2022-07-29T06:33:39;19.70;65.90
3069;DHT22;1545;51.728;8.796;2022-07-29T06:36:05;19.80;65.30
3069;DHT22;1545;51.728;8.796;2022-07-29T06:38:31;19.70;65.70
3069;DHT22;1545;51.728;8.796;2022-07-29T06:40:57;19.80;65.90
3069;DHT22;1545;51.728;8.796;2022-07-29T06:43:28;20.10;65.80
3069;DHT22;1545;51.728;8.796;2022-07-29T06:45:57;20.30;64.90
3069;DHT22;1545;51.728;8.796;2022-07-29T06:48:23;20.50;64.70
3069;DHT22;1545;51.728;8.796;2022-07-29T06:50:48;20.70;63.20
3069;DHT22;1545;51.728;8.796;2022-07-29T06:53:14;20.90;63.20
3069;DHT22;1545;51.728;8.796;2022-07-29T06:55:39;21.00;62.50
3069;DHT22;1545;51.728;8.796;2022-07-29T06:58:05;21.00;62.90
3069;DHT22;1545;51.728;8.796;2022-07-29T07:00:30;21.00;62.50
3069;DHT22;1545;51.728;8.796;2022-07-29T07:02:56;21.10;61.80
3069;DHT22;1545;51.728;8.796;2022-07-29T07:05:21;21.40;61.30
3069;DHT22;1545;51.728;8.796;2022-07-29T07:07:47;21.70;61.10
3069;DHT22;1545;51.728;8.796;2022-07-29T07:10:12;21.90;60.90
3069;DHT22;1545;51.728;8.796;2022-07-29T07:12:38;22.20;60.50
3069;DHT22;1545;51.728;8.796;2022-07-29T07:15:04;22.40;59.00
3069;DHT22;1545;51.728;8.796;2022-07-29T07:17:29;22.70;59.60
3069;DHT22;1545;51.728;8.796;2022-07-29T07:19:55;22.90;59.50
3069;DHT22;1545;51.728;8.796;2022-07-29T07:22:20;22.80;59.70
3069;DHT22;1545;51.728;8.796;2022-07-29T07:24:46;22.70;59.90
3069;DHT22;1545;51.728;8.796;2022-07-29T07:27:11;22.60;60.00
3069;DHT22;1545;51.728;8.796;2022-07-29T07:29:37;22.00;61.30
3069;DHT22;1545;51.728;8.796;2022-07-29T07:32:06;21.60;62.40
3069;DHT22;1545;51.728;8.796;2022-07-29T07:34:32;21.40;65.80
3069;DHT22;1545;51.728;8.796;2022-07-29T07:36:58;21.40;70.90
3069;DHT22;1545;51.728;8.796;2022-07-29T07:39:23;21.10;71.70
3069;DHT22;1545;51.728;8.796;2022-07-29T07:41:49;20.50;72.20
3069;DHT22;1545;51.728;8.796;2022-07-29T07:44:14;19.90;74.20
3069;DHT22;1545;51.728;8.796;2022-07-29T07:46:40;19.40;75.60
3069;DHT22;1545;51.728;8.796;2022-07-29T07:49:05;19.30;75.80
3069;DHT22;1545;51.728;8.796;2022-07-29T07:51:31;19.30;77.00
3069;DHT22;1545;51.728;8.796;2022-07-29T07:53:56;19.00;76.40
3069;DHT22;1545;51.728;8.796;2022-07-29T07:56:22;19.10;76.70
3069;DHT22;1545;51.728;8.796;2022-07-29T07:58:47;19.20;76.70
3069;DHT22;1545;51.728;8.796;2022-07-29T08:01:13;19.50;76.60
3069;DHT22;1545;51.728;8.796;2022-07-29T08:03:38;19.90;76.50
3069;DHT22;1545;51.728;8.796;2022-07-29T08:06:04;20.30;74.00
3069;DHT22;1545;51.728;8.796;2022-07-29T08:08:31;20.90;73.80
3069;DHT22;1545;51.728;8.796;2022-07-29T08:10:56;21.30;69.30
3069;DHT22;1545;51.728;8.796;2022-07-29T08:13:24;21.60;68.40
3069;DHT22;1545;51.728;8.796;2022-07-29T08:15:55;21.70;67.80
3069;DHT22;1545;51.728;8.796;2022-07-29T08:18:26;21.60;66.80
3069;DHT22;1545;51.728;8.796;2022-07-29T08:20:51;21.60;67.00
3069;DHT22;1545;51.728;8.796;2022-07-29T08:23:17;21.70;65.00
3069;DHT22;1545;51.728;8.796;2022-07-29T08:25:44;21.60;68.00
3069;DHT22;1545;51.728;8.796;2022-07-29T08:28:10;21.70;67.20
3069;DHT22;1545;51.728;8.796;2022-07-29T08:30:35;21.70;67.00
3069;DHT22;1545;51.728;8.796;2022-07-29T08:33:02;21.60;66.30
3069;DHT22;1545;51.728;8.796;2022-07-29T08:35:28;21.50;66.80
3069;DHT22;1545;51.728;8.796;2022-07-29T08:37:53;21.40;68.50
3069;DHT22;1545;51.728;8.796;2022-07-29T08:40:20;21.50;67.80
3069;DHT22;1545;51.728;8.796;2022-07-29T08:42:51;21.50;68.30
3069;DHT22;1545;51.728;8.796;2022-07-29T08:45:17;21.60;69.80
3069;DHT22;1545;51.728;8.796;2022-07-29T08:47:44;21.90;66.90
3069;DHT22;1545;51.728;8.796;2022-07-29T08:50:10;22.30;66.80
3069;DHT22;1545;51.728;8.796;2022-07-29T08:52:38;22.80;64.50
3069;DHT22;1545;51.728;8.796;2022-07-29T08:55:09;23.60;63.00
3069;DHT22;1545;51.728;8.796;2022-07-29T08:57:35;24.20;60.20
3069;DHT22;1545;51.728;8.796;2022-07-29T09:00:03;24.10;59.70
3069;DHT22;1545;51.728;8.796;2022-07-29T09:02:35;24.20;61.90
3069;DHT22;1545;51.728;8.796;2022-07-29T09:05:01;24.20;60.00
3069;DHT22;1545;51.728;8.796;2022-07-29T09:07:28;24.10;60.60
3069;DHT22;1545;51.728;8.796;2022-07-29T09:09:53;24.40;60.90
3069;DHT22;1545;51.728;8.796;2022-07-29T09:12:19;24.60;59.90
3069;DHT22;1545;51.728;8.796;2022-07-29T09:14:47;25.30;58.90
3069;DHT22;1545;51.728;8.796;2022-07-29T09:17:14;26.60;56.20
3069;DHT22;1545;51.728;8.796;2022-07-29T09:19:45;27.80;52.50
3069;DHT22;1545;51.728;8.796;2022-07-29T09:22:10;29.30;48.30
3069;DHT22;1545;51.728;8.796;2022-07-29T09:24:47;30.10;47.40
3069;DHT22;1545;51.728;8.796;2022-07-29T09:27:21;30.30;46.50
3069;DHT22;1545;51.728;8.796;2022-07-29T09:29:58;30.50;47.50
3069;DHT22;1545;51.728;8.796;2022-07-29T09:32:24;30.60;45.60
3069;DHT22;1545;51.728;8.796;2022-07-29T09:34:49;31.20;45.90
3069;DHT22;1545;51.728;8.796;2022-07-29T09:37:30;32.40;43.10
3069;DHT22;1545;51.728;8.796;2022-07-29T09:39:56;31.60;42.60
3069;DHT22;1545;51.728;8.796;2022-07-29T09:42:28;29.70;44.40
3069;DHT22;1545;51.728;8.796;2022-07-29T09:44:55;27.50;47.90
3069;DHT22;1545;51.728;8.796;2022-07-29T09:47:20;26.10;50.60
3069;DHT22;1545;51.728;8.796;2022-07-29T09:49:56;25.40;52.40
3069;DHT22;1545;51.728;8.796;2022-07-29T09:52:23;24.90;52.60
3069;DHT22;1545;51.728;8.796;2022-07-29T09:54:49;24.70;53.80
3069;DHT22;1545;51.728;8.796;2022-07-29T10:00:06;26.30;51.60
3069;DHT22;1545;51.728;8.796;2022-07-29T10:02:36;27.30;50.00
3069;DHT22;1545;51.728;8.796;2022-07-29T10:05:04;27.30;50.80
3069;DHT22;1545;51.728;8.796;2022-07-29T10:08:03;27.20;50.50
3069;DHT22;1545;51.728;8.796;2022-07-29T10:10:34;27.10;50.30
3069;DHT22;1545;51.728;8.796;2022-07-29T10:13:02;26.90;50.60
3069;DHT22;1545;51.728;8.796;2022-07-29T10:15:30;27.00;50.80
3069;DHT22;1545;51.728;8.796;2022-07-29T10:17:56;27.30;50.20
3069;DHT22;1545;51.728;8.796;2022-07-29T10:20:22;27.50;48.70
3069;DHT22;1545;51.728;8.796;2022-07-29T10:22:50;27.60;49.70
3069;DHT22;1545;51.728;8.796;2022-07-29T10:25:16;27.60;48.90
3069;DHT22;1545;51.728;8.796;2022-07-29T10:27:46;27.60;49.60
3069;DHT22;1545;51.728;8.796;2022-07-29T10:30:13;28.00;49.10
3069;DHT22;1545;51.728;8.796;2022-07-29T10:32:54;28.50;50.10
3069;DHT22;1545;51.728;8.796;2022-07-29T10:38:34;28.80;47.40
3069;DHT22;1545;51.728;8.796;2022-07-29T10:41:26;29.00;46.10
3069;DHT22;1545;51.728;8.796;2022-07-29T10:43:59;29.00;46.60
3069;DHT22;1545;51.728;8.796;2022-07-29T10:46:27;29.00;47.90
3069;DHT22;1545;51.728;8.796;2022-07-29T10:49:09;28.90;47.30
3069;DHT22;1545;51.728;8.796;2022-07-29T11:02:41;26.90;51.60
3069;DHT22;1545;51.728;8.796;2022-07-29T11:05:16;27.20;52.50
3069;DHT22;1545;51.728;8.796;2022-07-29T11:10:37;27.00;52.80
3069;DHT22;1545;51.728;8.796;2022-07-29T11:13:02;27.50;52.50
3069;DHT22;1545;51.728;8.796;2022-07-29T11:15:28;27.30;52.30
3069;DHT22;1545;51.728;8.796;2022-07-29T11:20:39;26.50;52.80
3069;DHT22;1545;51.728;8.796;2022-07-29T11:23:27;26.00;53.50
3069;DHT22;1545;51.728;8.796;2022-07-29T11:28:39;26.10;54.10
3069;DHT22;1545;51.728;8.796;2022-07-29T11:31:09;26.30;54.90
3069;DHT22;1545;51.728;8.796;2022-07-29T11:33:35;26.10;53.20
3069;DHT22;1545;51.728;8.796;2022-07-29T11:36:08;26.10;55.10
3069;DHT22;1545;51.728;8.796;2022-07-29T11:38:34;26.60;54.30
3069;DHT22;1545;51.728;8.796;2022-07-29T11:41:25;26.80;54.30
3069;DHT22;1545;51.728;8.796;2022-07-29T11:46:44;27.00;51.40
3069;DHT22;1545;51.728;8.796;2022-07-29T11:49:22;27.30;49.50
3069;DHT22;1545;51.728;8.796;2022-07-29T11:51:55;27.60;51.00
3069;DHT22;1545;51.728;8.796;2022-07-29T11:54:31;27.70;50.10
3069;DHT22;1545;51.728;8.796;2022-07-29T11:56:58;27.80;50.80
3069;DHT22;1545;51.728;8.796;2022-07-29T11:59:24;28.10;49.00
3069;DHT22;1545;51.728;8.796;2022-07-29T12:01:57;28.20;49.80
3069;DHT22;1545;51.728;8.796;2022-07-29T12:04:23;28.30;48.70
3069;DHT22;1545;51.728;8.796;2022-07-29T12:06:50;27.90;51.10
3069;DHT22;1545;51.728;8.796;2022-07-29T12:09:17;27.70;49.20
3069;DHT22;1545;51.728;8.796;2022-07-29T12:11:43;27.80;50.20
3069;DHT22;1545;51.728;8.796;2022-07-29T12:14:08;28.00;49.20
3069;DHT22;1545;51.728;8.796;2022-07-29T12:16:37;27.70;49.40
3069;DHT22;1545;51.728;8.796;2022-07-29T12:19:04;27.40;49.70
3069;DHT22;1545;51.728;8.796;2022-07-29T12:21:46;27.70;49.70
3069;DHT22;1545;51.728;8.796;2022-07-29T12:24:12;27.80;49.80
3069;DHT22;1545;51.728;8.796;2022-07-29T12:26:52;27.70;49.40
3069;DHT22;1545;51.728;8.796;2022-07-29T12:29:18;27.90;50.80
3069;DHT22;1545;51.728;8.796;2022-07-29T12:31:44;27.90;49.70
3069;DHT22;1545;51.728;8.796;2022-07-29T12:34:12;27.90;49.50
3069;DHT22;1545;51.728;8.796;2022-07-29T12:36:38;27.80;49.70
3069;DHT22;1545;51.728;8.796;2022-07-29T12:39:04;27.80;50.80
3069;DHT22;1545;51.728;8.796;2022-07-29T12:41:30;27.80;50.50
3069;DHT22;1545;51.728;8.796;2022-07-29T12:43:56;28.00;49.60
3069;DHT22;1545;51.728;8.796;2022-07-29T12:46:21;27.80;49.30
3069;DHT22;1545;51.728;8.796;2022-07-29T12:48:51;27.70;50.10
3069;DHT22;1545;51.728;8.796;2022-07-29T12:51:31;27.90;51.10
3069;DHT22;1545;51.728;8.796;2022-07-29T12:54:07;27.80;50.20
3069;DHT22;1545;51.728;8.796;2022-07-29T12:56:33;27.50;50.70
3069;DHT22;1545;51.728;8.796;2022-07-29T12:58:59;27.70;50.30
3069;DHT22;1545;51.728;8.796;2022-07-29T13:01:25;27.60;50.10
3069;DHT22;1545;51.728;8.796;2022-07-29T13:03:57;27.90;49.90
3069;DHT22;1545;51.728;8.796;2022-07-29T13:06:41;27.70;49.90
3069;DHT22;1545;51.728;8.796;2022-07-29T13:09:12;27.80;50.40
3069;DHT22;1545;51.728;8.796;2022-07-29T13:11:46;27.80;51.00
3069;DHT22;1545;51.728;8.796;2022-07-29T13:14:14;28.20;49.80
3069;DHT22;1545;51.728;8.796;2022-07-29T13:17:14;28.10;49.20
3069;DHT22;1545;51.728;8.796;2022-07-29T13:19:42;27.60;51.30
3069;DHT22;1545;51.728;8.796;2022-07-29T13:22:11;27.80;51.50
3069;DHT22;1545;51.728;8.796;2022-07-29T13:24:57;27.80;48.90
3069;DHT22;1545;51.728;8.796;2022-07-29T13:27:25;28.30;49.30
3069;DHT22;1545;51.728;8.796;2022-07-29T13:29:52;28.60;48.20
3069;DHT22;1545;51.728;8.796;2022-07-29T13:32:19;28.90;47.80
3069;DHT22;1545;51.728;8.796;2022-07-29T13:34:44;28.50;48.00
3069;DHT22;1545;51.728;8.796;2022-07-29T13:37:10;28.30;48.50
3069;DHT22;1545;51.728;8.796;2022-07-29T13:39:36;27.90;49.10
3069;DHT22;1545;51.728;8.796;2022-07-29T13:42:03;28.00;49.90
3069;DHT22;1545;51.728;8.796;2022-07-29T13:44:29;28.00;49.20
3069;DHT22;1545;51.728;8.796;2022-07-29T13:46:54;28.10;49.10
3069;DHT22;1545;51.728;8.796;2022-07-29T13:49:20;28.40;49.50
3069;DHT22;1545;51.728;8.796;2022-07-29T13:51:45;28.50;47.80
3069;DHT22;1545;51.728;8.796;2022-07-29T13:54:11;28.80;47.90
3069;DHT22;1545;51.728;8.796;2022-07-29T13:56:36;28.90;50.10
3069;DHT22;1545;51.728;8.796;2022-07-29T13:59:02;29.00;49.80
3069;DHT22;1545;51.728;8.796;2022-07-29T14:01:27;29.10;48.30
3069;DHT22;1545;51.728;8.796;2022-07-29T14:03:55;28.90;48.30
3069;DHT22;1545;51.728;8.796;2022-07-29T14:06:20;29.00;50.10
3069;DHT22;1545;51.728;8.796;2022-07-29T14:08:46;28.90;48.60
3069;DHT22;1545;51.728;8.796;2022-07-29T14:11:11;29.20;49.10
3069;DHT22;1545;51.728;8.796;2022-07-29T14:13:37;29.30;48.60
3069;DHT22;1545;51.728;8.796;2022-07-29T14:16:03;29.50;49.30
3069;DHT22;1545;51.728;8.796;2022-07-29T14:18:28;29.10;46.80
3069;DHT22;1545;51.728;8.796;2022-07-29T14:20:54;29.00;49.50
3069;DHT22;1545;51.728;8.796;2022-07-29T14:23:19;29.10;49.60
3069;DHT22;1545;51.728;8.796;2022-07-29T14:25:45;29.10;48.70
3069;DHT22;1545;51.728;8.796;2022-07-29T14:28:10;29.10;48.40
3069;DHT22;1545;51.728;8.796;2022-07-29T14:30:36;28.80;49.30
3069;DHT22;1545;51.728;8.796;2022-07-29T14:33:01;28.70;49.10
3069;DHT22;1545;51.728;8.796;2022-07-29T14:35:27;28.90;48.80
3069;DHT22;1545;51.728;8.796;2022-07-29T14:37:53;28.80;51.10
3069;DHT22;1545;51.728;8.796;2022-07-29T14:40:18;28.80;49.90
3069;DHT22;1545;51.728;8.796;2022-07-29T14:42:44;28.70;50.50
3069;DHT22;1545;51.728;8.796;2022-07-29T14:45:09;28.70;50.80
3069;DHT22;1545;51.728;8.796;2022-07-29T14:47:36;28.90;49.30
3069;DHT22;1545;51.728;8.796;2022-07-29T14:50:02;29.20;48.10
3069;DHT22;1545;51.728;8.796;2022-07-29T14:52:28;29.30;48.10
3069;DHT22;1545;51.728;8.796;2022-07-29T14:54:55;29.40;48.30
3069;DHT22;1545;51.728;8.796;2022-07-29T14:57:21;29.20;50.70
3069;DHT22;1545;51.728;8.796;2022-07-29T14:59:47;29.00;48.80
3069;DHT22;1545;51.728;8.796;2022-07-29T15:02:12;29.10;52.00
3069;DHT22;1545;51.728;8.796;2022-07-29T15:04:38;29.20;48.40
3069;DHT22;1545;51.728;8.796;2022-07-29T15:07:03;29.20;50.30
3069;DHT22;1545;51.728;8.796;2022-07-29T15:09:29;29.50;49.30
3069;DHT22;1545;51.728;8.796;2022-07-29T15:11:55;29.60;49.20
3069;DHT22;1545;51.728;8.796;2022-07-29T15:14:20;29.70;47.80
3069;DHT22;1545;51.728;8.796;2022-07-29T15:16:46;29.70;49.10
3069;DHT22;1545;51.728;8.796;2022-07-29T15:19:11;29.80;48.00
3069;DHT22;1545;51.728;8.796;2022-07-29T15:21:37;29.80;48.10
3069;DHT22;1545;51.728;8.796;2022-07-29T15:24:03;29.60;47.70
3069;DHT22;1545;51.728;8.796;2022-07-29T15:26:29;29.70;48.30
3069;DHT22;1545;51.728;8.796;2022-07-29T15:28:54;29.50;48.50
3069;DHT22;1545;51.728;8.796;2022-07-29T15:31:23;29.40;49.70
3069;DHT22;1545;51.728;8.796;2022-07-29T15:33:48;29.20;49.10
3069;DHT22;1545;51.728;8.796;2022-07-29T15:36:14;29.10;48.40
3069;DHT22;1545;51.728;8.796;2022-07-29T15:38:39;29.00;49.00
3069;DHT22;1545;51.728;8.796;2022-07-29T15:41:06;28.80;49.30
3069;DHT22;1545;51.728;8.796;2022-07-29T15:43:32;28.60;49.40
3069;DHT22;1545;51.728;8.796;2022-07-29T15:45:58;28.30;50.10
3069;DHT22;1545;51.728;8.796;2022-07-29T15:48:42;28.20;51.70
3069;DHT22;1545;51.728;8.796;2022-07-29T15:51:07;28.10;50.90
3069;DHT22;1545;51.728;8.796;2022-07-29T15:53:33;28.10;52.10
3069;DHT22;1545;51.728;8.796;2022-07-29T15:55:58;28.00;52.30
3069;DHT22;1545;51.728;8.796;2022-07-29T15:58:24;28.00;52.10
3069;DHT22;1545;51.728;8.796;2022-07-29T16:00:49;27.80;52.30
3069;DHT22;1545;51.728;8.796;2022-07-29T16:03:15;27.70;52.00
3069;DHT22;1545;51.728;8.796;2022-07-29T16:05:41;27.70;52.50
3069;DHT22;1545;51.728;8.796;2022-07-29T16:08:07;27.60;52.50
3069;DHT22;1545;51.728;8.796;2022-07-29T16:10:32;27.60;52.70
3069;DHT22;1545;51.728;8.796;2022-07-29T16:12:58;27.70;52.10
3069;DHT22;1545;51.728;8.796;2022-07-29T16:15:24;27.60;52.20
3069;DHT22;1545;51.728;8.796;2022-07-29T16:17:49;27.70;53.40
3069;DHT22;1545;51.728;8.796;2022-07-29T16:20:15;27.70;53.40
3069;DHT22;1545;51.728;8.796;2022-07-29T16:22:41;27.60;53.00
3069;DHT22;1545;51.728;8.796;2022-07-29T16:25:06;27.50;53.20
3069;DHT22;1545;51.728;8.796;2022-07-29T16:27:33;27.60;54.10
3069;DHT22;1545;51.728;8.796;2022-07-29T16:29:58;27.70;52.40
3069;DHT22;1545;51.728;8.796;2022-07-29T16:32:24;27.70;51.80
3069;DHT22;1545;51.728;8.796;2022-07-29T16:34:49;27.60;51.50
3069;DHT22;1545;51.728;8.796;2022-07-29T16:37:15;27.00;52.90
3069;DHT22;1545;51.728;8.796;2022-07-29T16:39:41;26.70;53.60